Time;durP1;ratioP1;P1;durP2;ratioP2;P2;SDS_P1;SDS_P2;PMS_P1;PMS_P2;Temp;Humidity;BMP_temperature;BMP_pressure;BME280_temperature;BME280_humidity;BME280_pressure;Samples;Min_cycle;Max_cycle;Signal;HPM_P1;HPM_P2
2022/06/09 03:02:19;;;;;;;26.42;8.63;;;12.90;99.90;;;;;;6242401;22;20028;-80
2022/06/09 03:04:45;;;;;;;22.92;8.93;;;12.80;99.90;;;;;;6245920;23;20099;-81
2022/06/09 03:07:12;;;;;;;27.88;8.70;;;12.80;99.90;;;;;;6246661;23;20086;-81
2022/06/09 03:09:38;;;;;;;21.33;8.30;;;12.80;99.90;;;;;;6218123;23;20016;-82
2022/06/09 03:12:04;;;;;;;25.08;8.32;;;12.90;99.90;;;;;;6270370;22;20039;-82
2022/06/09 03:14:30;;;;;;;27.40;8.77;;;12.80;99.90;;;;;;6279393;22;20020;-81
2022/06/09 03:16:56;;;;;;;22.20;9.15;;;12.80;99.90;;;;;;6279057;22;20452;-81
2022/06/09 03:19:22;;;;;;;36.63;9.45;;;12.80;99.90;;;;;;6245966;23;20012;-80
2022/06/09 03:21:48;;;;;;;25.23;9.20;;;12.80;99.90;;;;;;6277875;22;20032;-82
2022/06/09 03:24:13;;;;;;;23.35;9.48;;;12.80;99.90;;;;;;6251134;22;20441;-81
2022/06/09 03:26:39;;;;;;;27.95;9.77;;;12.80;99.90;;;;;;6251062;22;20019;-82
2022/06/09 03:29:05;;;;;;;23.00;9.52;;;12.80;99.90;;;;;;6278777;22;20035;-80
2022/06/09 03:31:34;;;;;;;22.35;7.97;;;12.70;99.90;;;;;;6246607;22;20093;-81
2022/06/09 03:34:00;;;;;;;19.27;8.25;;;12.80;99.90;;;;;;6251283;22;20472;-80
2022/06/09 03:36:26;;;;;;;25.08;8.65;;;12.70;99.90;;;;;;6251294;22;20012;-82
2022/06/09 03:38:52;;;;;;;17.88;8.70;;;12.80;99.90;;;;;;6278313;22;20012;-81
2022/06/09 03:41:17;;;;;;;20.63;8.35;;;12.70;99.90;;;;;;6251121;22;20291;-81
2022/06/09 03:43:43;;;;;;;20.60;8.25;;;12.70;99.90;;;;;;6278212;22;20007;-81
2022/06/09 03:46:11;;;;;;;19.83;8.07;;;12.70;99.90;;;;;;6245881;23;20392;-81
2022/06/09 03:48:36;;;;;;;20.80;8.60;;;12.70;99.90;;;;;;6251023;22;20047;-80
2022/06/09 03:51:02;;;;;;;24.33;9.30;;;12.70;99.90;;;;;;6278639;22;20043;-82
2022/06/09 03:53:28;;;;;;;22.67;8.82;;;12.80;99.90;;;;;;6251369;22;20425;-81
2022/06/09 03:55:56;;;;;;;25.83;9.13;;;12.70;99.90;;;;;;6250907;22;20020;-81
2022/06/09 03:58:21;;;;;;;29.30;9.50;;;12.70;99.90;;;;;;6278524;22;20008;-80
2022/06/09 04:00:47;;;;;;;22.30;9.38;;;12.70;99.90;;;;;;6245429;23;20393;-81
2022/06/09 04:03:13;;;;;;;22.63;9.50;;;12.70;99.90;;;;;;6245819;23;20016;-82
2022/06/09 04:05:38;;;;;;;24.20;9.57;;;12.70;99.90;;;;;;6245524;23;20012;-81
2022/06/09 04:08:04;;;;;;;23.20;8.95;;;12.70;99.90;;;;;;6246118;23;20330;-80
2022/06/09 04:10:33;;;;;;;25.75;9.73;;;12.70;99.90;;;;;;6247210;23;20333;-81
2022/06/09 04:12:59;;;;;;;19.75;9.45;;;12.70;99.90;;;;;;6245731;23;20043;-81
2022/06/09 04:15:26;;;;;;;23.63;9.98;;;12.70;99.90;;;;;;6247380;23;20023;-81
2022/06/09 04:17:52;;;;;;;23.20;10.00;;;12.70;99.90;;;;;;6271468;22;20012;-81
2022/06/09 04:20:19;;;;;;;25.55;10.05;;;12.80;99.90;;;;;;6247061;23;20054;-80
2022/06/09 04:22:45;;;;;;;26.40;10.30;;;12.80;99.90;;;;;;6218668;23;20012;-82
2022/06/09 04:25:10;;;;;;;22.90;10.02;;;12.80;99.90;;;;;;6271038;22;20012;-80
2022/06/09 04:27:36;;;;;;;22.00;9.63;;;12.90;99.90;;;;;;6219870;23;20098;-81
2022/06/09 04:30:02;;;;;;;24.83;9.77;;;12.90;99.90;;;;;;6246908;23;20041;-81
2022/06/09 04:32:28;;;;;;;21.98;10.25;;;12.90;99.90;;;;;;6245064;23;20016;-79
2022/06/09 04:34:54;;;;;;;20.17;9.63;;;13.00;99.90;;;;;;6270647;22;20110;-79
2022/06/09 04:37:19;;;;;;;20.88;10.38;;;13.00;99.90;;;;;;6270741;22;20109;-80
2022/06/09 04:39:45;;;;;;;23.65;10.52;;;13.00;99.90;;;;;;6270536;22;20008;-80
2022/06/09 04:42:11;;;;;;;23.00;10.35;;;13.00;99.90;;;;;;6270763;22;20107;-81
2022/06/09 04:44:37;;;;;;;30.45;10.20;;;13.00;99.90;;;;;;6245720;23;20008;-81
2022/06/09 04:47:03;;;;;;;21.55;10.30;;;13.10;99.90;;;;;;6245725;23;20061;-82
2022/06/09 04:49:28;;;;;;;21.75;10.25;;;13.10;99.90;;;;;;6247037;23;20032;-81
2022/06/09 04:51:54;;;;;;;19.98;10.32;;;13.10;99.90;;;;;;6270324;22;20338;-81
2022/06/09 04:54:20;;;;;;;25.80;10.98;;;13.10;99.90;;;;;;6246019;23;20095;-80
2022/06/09 04:56:47;;;;;;;22.13;10.55;;;13.20;99.90;;;;;;6221889;23;20012;-80
2022/06/09 04:59:13;;;;;;;19.90;9.88;;;13.20;99.90;;;;;;6244905;23;20091;-81
2022/06/09 05:57:02;;;;;;;25.73;15.13;;;14.00;99.90;;;;;;6249059;22;20249;-82
2022/06/09 06:07:22;;;;;;;27.90;15.55;;;14.20;99.90;;;;;;6241167;23;20077;-82
2022/06/09 06:18:04;;;;;;;27.88;15.80;;;14.50;99.90;;;;;;6263739;22;19973;-81
2022/06/09 06:21:21;;;;;;;;;;;;;;;;;;;;;
2022/06/09 06:24:51;;;;;;;;;;;;;;;;;;;;;
2022/06/09 06:34:51;;;;;;;26.90;13.75;;;14.70;99.90;;;;;;6272793;22;20020;-83
2022/06/09 06:37:48;;;;;;;19.65;12.50;;;14.80;99.90;;;;;;6250744;22;20008;-80
2022/06/09 06:57:35;;;;;;;;;;;;;;;;;;;;;
2022/06/09 07:00:30;;;;;;;15.32;9.77;;;15.10;99.90;;;;;;6139928;23;20013;-81
2022/06/09 07:03:33;;;;;;;13.00;9.07;;;15.20;99.90;;;;;;6130190;23;20009;-80
2022/06/09 07:06:26;;;;;;;;;;;;;;;;;;;;;
2022/06/09 07:09:29;;;;;;;13.30;8.15;;;15.50;99.90;;;;;;6155642;23;20018;-79
2022/06/09 07:12:30;;;;;;;12.80;6.35;;;15.60;99.90;;;;;;6220222;22;20457;-81
2022/06/09 07:15:13;;;;;;;13.32;6.35;;;15.60;99.90;;;;;;6221739;23;20019;-81
2022/06/09 07:17:40;;;;;;;10.95;6.28;;;15.60;99.90;;;;;;6221205;23;20012;-86
2022/06/09 07:20:07;;;;;;;12.73;6.97;;;15.60;99.90;;;;;;6220985;23;20353;-82
2022/06/09 07:22:33;;;;;;;15.63;6.03;;;15.70;99.90;;;;;;6219427;23;20162;-82
2022/06/09 07:24:58;;;;;;;7.85;4.75;;;15.80;99.90;;;;;;6195535;23;20096;-81
2022/06/09 07:27:24;;;;;;;10.98;4.38;;;15.80;99.90;;;;;;6247183;23;20342;-83
2022/06/09 07:29:50;;;;;;;9.82;3.40;;;15.90;99.90;;;;;;6247028;23;20438;-83
2022/06/09 07:32:17;;;;;;;7.00;2.67;;;16.00;99.90;;;;;;6245611;23;20022;-85
2022/06/09 07:34:43;;;;;;;10.70;3.80;;;16.00;99.90;;;;;;6245665;23;20339;-82
2022/06/09 07:37:25;;;;;;;8.93;2.35;;;16.10;99.90;;;;;;6195855;23;20012;-83
2022/06/09 07:39:50;;;;;;;5.65;2.55;;;16.20;99.90;;;;;;6246970;23;20005;-81
2022/06/09 07:42:16;;;;;;;6.72;2.90;;;16.20;99.90;;;;;;6220016;23;20501;-80
2022/06/09 07:44:43;;;;;;;9.48;3.20;;;16.20;99.90;;;;;;6221322;23;20024;-81
2022/06/09 07:47:09;;;;;;;6.10;2.20;;;16.20;99.90;;;;;;6247286;23;20058;-81
2022/06/09 07:49:35;;;;;;;8.85;2.75;;;16.30;99.90;;;;;;6220169;23;20457;-80
2022/06/09 07:52:01;;;;;;;7.20;2.92;;;16.40;99.90;;;;;;6245379;23;20315;-82
2022/06/09 07:54:27;;;;;;;7.03;2.00;;;16.50;99.90;;;;;;6247002;23;20008;-82
2022/06/09 07:56:54;;;;;;;6.80;2.10;;;16.60;99.90;;;;;;6220162;23;20122;-82
2022/06/09 07:59:20;;;;;;;10.48;2.95;;;16.60;99.90;;;;;;6244292;23;20016;-83
2022/06/09 08:01:46;;;;;;;6.18;2.40;;;16.60;99.90;;;;;;6220241;23;20331;-81
2022/06/09 08:04:12;;;;;;;14.30;3.28;;;16.70;99.90;;;;;;6169428;23;20008;-82
2022/06/09 08:06:39;;;;;;;5.85;2.10;;;16.80;99.90;;;;;;6219868;23;20339;-79
2022/06/09 08:09:05;;;;;;;9.15;2.72;;;16.80;99.90;;;;;;6219490;23;20062;-81
2022/06/09 08:11:35;;;;;;;7.72;1.65;;;16.80;99.90;;;;;;6215316;23;20047;-81
2022/06/09 08:14:03;;;;;;;6.07;1.88;;;16.80;99.90;;;;;;6246886;23;20083;-81
2022/06/09 08:16:30;;;;;;;6.45;1.83;;;16.80;99.90;;;;;;6246222;23;20050;-81
2022/06/09 08:18:57;;;;;;;4.03;1.65;;;16.90;99.90;;;;;;6246345;23;20058;-81
2022/06/09 08:21:24;;;;;;;5.90;1.38;;;17.00;99.90;;;;;;6219649;23;20034;-81
2022/06/09 08:23:49;;;;;;;8.15;1.77;;;17.00;99.90;;;;;;6246305;23;20034;-82
2022/06/09 08:26:16;;;;;;;4.90;1.73;;;17.00;99.90;;;;;;6244961;23;20091;-82
2022/06/09 08:28:41;;;;;;;9.27;2.63;;;17.10;99.90;;;;;;6246197;23;20020;-84
2022/06/09 08:31:07;;;;;;;5.53;1.80;;;17.10;99.90;;;;;;6245156;23;20012;-81
2022/06/09 08:33:33;;;;;;;8.48;2.28;;;17.20;99.90;;;;;;6195680;23;20016;-80
2022/06/09 08:35:58;;;;;;;7.65;2.80;;;17.30;99.90;;;;;;6244556;23;20016;-81
2022/06/09 08:38:24;;;;;;;10.30;2.78;;;17.30;99.90;;;;;;6219308;23;20098;-81
2022/06/09 08:41:02;;;;;;;9.60;2.40;;;17.40;99.90;;;;;;6244163;23;20099;-80
2022/06/09 08:43:42;;;;;;;10.18;2.40;;;17.40;99.90;;;;;;6194504;23;20087;-81
2022/06/09 08:46:24;;;;;;;10.48;2.30;;;17.50;99.90;;;;;;6194327;23;20020;-82
2022/06/09 08:48:53;;;;;;;7.90;2.38;;;17.40;99.90;;;;;;6246670;23;20027;-83
2022/06/09 08:51:39;;;;;;;7.55;2.00;;;17.60;99.90;;;;;;6244782;23;20015;-81
2022/06/09 08:54:17;;;;;;;6.50;2.67;;;17.50;99.90;;;;;;6244969;23;20019;-82
2022/06/09 08:56:45;;;;;;;6.97;1.77;;;17.70;99.90;;;;;;6245923;23;20430;-80
2022/06/09 08:59:17;;;;;;;6.38;2.13;;;17.80;99.90;;;;;;6245670;23;20438;-82
2022/06/09 09:01:47;;;;;;;8.30;2.28;;;17.90;99.90;;;;;;6245132;23;20374;-80
2022/06/09 09:04:25;;;;;;;8.07;2.40;;;17.90;99.90;;;;;;6218879;23;20019;-80
2022/06/09 09:06:57;;;;;;;10.90;2.20;;;17.90;99.90;;;;;;6245992;23;20075;-83
2022/06/09 09:09:29;;;;;;;10.95;3.35;;;17.80;99.90;;;;;;6194235;23;20434;-82
2022/06/09 09:12:03;;;;;;;8.63;2.00;;;17.80;99.90;;;;;;6244361;23;20012;-82
2022/06/09 09:14:36;;;;;;;6.18;2.10;;;17.70;99.90;;;;;;6219230;23;20019;-81
2022/06/09 09:17:20;;;;;;;9.90;2.00;;;17.60;99.90;;;;;;6193969;23;20012;-82
2022/06/09 09:20:16;;;;;;;8.75;2.50;;;17.70;99.90;;;;;;6246213;23;20063;-82
2022/06/09 09:22:56;;;;;;;7.85;2.42;;;17.70;99.90;;;;;;6244551;23;20091;-81
2022/06/09 09:25:29;;;;;;;10.18;2.70;;;17.90;99.90;;;;;;6244652;23;20012;-80
2022/06/09 09:28:12;;;;;;;8.63;2.10;;;18.00;99.90;;;;;;6244237;23;20016;-81
2022/06/09 09:31:02;;;;;;;4.50;1.63;;;18.00;99.90;;;;;;6244284;23;20054;-80
2022/06/09 09:33:28;;;;;;;8.88;2.10;;;17.90;99.90;;;;;;6173823;23;20091;-82
2022/06/09 09:35:59;;;;;;;6.90;1.98;;;18.00;99.90;;;;;;6245632;23;20016;-80
2022/06/09 09:38:38;;;;;;;10.10;2.00;;;18.10;99.90;;;;;;6246516;23;20442;-81
2022/06/09 09:41:05;;;;;;;19.02;2.72;;;18.20;99.90;;;;;;6198076;23;20004;-82
2022/06/09 09:43:40;;;;;;;10.20;2.00;;;18.30;99.90;;;;;;6221169;23;20017;-82
2022/06/09 09:46:20;;;;;;;9.77;1.90;;;18.30;99.90;;;;;;6248378;23;20043;-81
2022/06/09 09:48:47;;;;;;;8.38;1.95;;;18.40;99.90;;;;;;6220991;23;20101;-80
2022/06/09 09:51:13;;;;;;;7.45;2.45;;;18.50;99.90;;;;;;6246284;23;20430;-81
2022/06/09 09:53:55;;;;;;;6.85;1.45;;;18.50;99.90;;;;;;6195876;23;20097;-82
2022/06/09 09:56:24;;;;;;;6.70;1.48;;;18.40;99.90;;;;;;6221035;23;20443;-82
2022/06/09 09:58:57;;;;;;;3.97;1.27;;;18.40;99.90;;;;;;6195607;23;20074;-82
2022/06/09 10:01:23;;;;;;;8.60;1.75;;;18.40;99.90;;;;;;6246343;23;20016;-82
2022/06/09 10:09:59;;;;;;;7.15;1.30;;;18.60;99.90;;;;;;6221298;23;20024;-81
2022/06/09 10:12:34;;;;;;;3.92;1.00;;;18.60;99.90;;;;;;6240763;23;20012;-82
2022/06/09 10:15:08;;;;;;;6.40;1.40;;;18.60;99.90;;;;;;6196166;23;20016;-81
2022/06/09 10:18:02;;;;;;;5.15;1.10;;;18.70;99.90;;;;;;6246379;23;20243;-83
2022/06/09 10:21:04;;;;;;;8.27;1.88;;;18.60;99.90;;;;;;6249001;23;20012;-83
2022/06/09 10:23:44;;;;;;;4.80;1.20;;;18.70;99.90;;;;;;6248190;23;20009;-83
2022/06/09 10:26:15;;;;;;;5.47;1.27;;;18.50;99.90;;;;;;6246163;23;20479;-82
2022/06/09 10:29:08;;;;;;;6.97;1.30;;;18.40;99.90;;;;;;6247476;23;20442;-82
2022/06/09 10:31:58;;;;;;;6.18;1.20;;;18.40;99.90;;;;;;6245854;23;20012;-81
2022/06/09 10:34:31;;;;;;;6.60;1.33;;;18.70;99.90;;;;;;6246135;23;20012;-82
2022/06/09 10:37:02;;;;;;;4.38;1.45;;;18.80;99.90;;;;;;6246023;23;20012;-84
2022/06/09 10:40:06;;;;;;;5.55;1.17;;;18.70;99.90;;;;;;6248046;23;20004;-84
2022/06/09 10:42:37;;;;;;;3.40;0.95;;;18.90;99.90;;;;;;6195569;23;20077;-82
2022/06/09 10:45:37;;;;;;;7.30;1.67;;;18.90;99.90;;;;;;6247445;23;20031;-80
2022/06/09 10:57:04;;;;;;;6.20;1.50;;;19.00;99.90;;;;;;6223476;23;20016;-82
2022/06/09 10:59:36;;;;;;;5.72;1.58;;;18.80;99.90;;;;;;6247302;23;20434;-80
2022/06/09 11:02:09;;;;;;;7.15;1.55;;;18.70;99.90;;;;;;6195259;23;20012;-82
2022/06/09 11:04:36;;;;;;;8.68;1.88;;;18.70;99.90;;;;;;6246503;23;20044;-82
2022/06/09 11:07:31;;;;;;;8.52;1.75;;;18.50;99.90;;;;;;6221003;23;20458;-82
2022/06/09 11:10:28;;;;;;;8.23;1.70;;;18.70;99.90;;;;;;6245269;23;20374;-80
2022/06/09 11:13:24;;;;;;;9.50;2.50;;;18.80;99.90;;;;;;6215281;23;20369;-81
2022/06/09 11:16:06;;;;;;;9.73;1.88;;;18.90;99.90;;;;;;6189911;23;20044;-81
2022/06/09 11:18:35;;;;;;;7.13;1.40;;;19.00;99.90;;;;;;6216742;23;20016;-81
2022/06/09 11:21:15;;;;;;;7.65;1.65;;;19.20;99.90;;;;;;6190131;23;20338;-82
2022/06/09 11:24:04;;;;;;;6.28;1.63;;;19.20;99.90;;;;;;6215305;23;20052;-84
2022/06/09 11:26:52;;;;;;;7.10;1.63;;;19.20;99.90;;;;;;6190176;23;20016;-81
2022/06/09 11:29:31;;;;;;;6.22;1.70;;;19.20;99.90;;;;;;6215414;23;20100;-82
2022/06/09 11:32:23;;;;;;;3.58;1.10;;;19.40;99.90;;;;;;6215371;23;20309;-81
2022/06/09 11:35:02;;;;;;;6.68;1.42;;;19.50;99.90;;;;;;6188530;23;20339;-82
2022/06/09 11:37:41;;;;;;;3.30;1.08;;;19.30;99.90;;;;;;6190322;23;20019;-80
2022/06/09 11:40:22;;;;;;;5.70;1.23;;;19.50;99.90;;;;;;6216737;23;20020;-85
2022/06/09 11:43:16;;;;;;;10.05;1.33;;;19.30;99.90;;;;;;6215393;23;20082;-82
2022/06/09 11:45:54;;;;;;;9.00;1.60;;;19.40;99.90;;;;;;6209979;23;20096;-89
2022/06/09 11:48:30;;;;;;;5.00;1.55;;;19.20;99.90;;;;;;6214954;23;20016;-84
2022/06/09 11:50:57;;;;;;;6.65;1.52;;;19.20;99.90;;;;;;6214788;23;20435;-80
2022/06/09 11:53:26;;;;;;;5.65;1.58;;;19.20;99.90;;;;;;6216515;23;20020;-82
2022/06/09 11:56:11;;;;;;;7.18;2.05;;;19.20;99.90;;;;;;6215046;23;20079;-81
2022/06/09 11:58:37;;;;;;;;;;;19.30;99.90;;;;;;6189997;23;20020;-83
2022/06/09 12:01:29;;;;;;;6.60;1.20;;;19.20;99.90;;;;;;6214769;23;20242;-80
2022/06/09 12:04:13;;;;;;;8.60;2.05;;;19.40;99.90;;;;;;6190117;23;20016;-81
2022/06/09 12:07:00;;;;;;;5.80;1.63;;;19.50;99.90;;;;;;6215060;23;20017;-83
2022/06/09 12:09:44;;;;;;;7.35;2.08;;;19.50;99.90;;;;;;6190136;23;20324;-82
2022/06/09 12:12:30;;;;;;;7.50;1.42;;;19.40;99.90;;;;;;6164954;23;20450;-82
2022/06/09 12:15:18;;;;;;;6.20;1.70;;;19.60;99.90;;;;;;6215121;23;20463;-84
2022/06/09 12:18:23;;;;;;;6.97;2.00;;;19.50;99.90;;;;;;6214671;23;20043;-82
2022/06/09 12:20:49;;;;;;;7.18;2.00;;;19.90;99.90;;;;;;6215216;23;20024;-81
2022/06/09 12:23:27;;;;;;;11.00;1.90;;;19.60;99.90;;;;;;6214706;23;20017;-83
2022/06/09 12:26:11;;;;;;;7.65;1.48;;;19.70;99.90;;;;;;6214743;23;20540;-81
2022/06/09 12:28:49;;;;;;;6.20;1.52;;;20.00;99.90;;;;;;6215466;23;20021;-83
2022/06/09 12:31:31;;;;;;;7.47;1.58;;;19.70;99.90;;;;;;6217013;23;20019;-81
2022/06/09 12:34:02;;;;;;;6.68;1.48;;;19.80;99.90;;;;;;6165826;23;20023;-83
2022/06/09 12:36:46;;;;;;;6.30;1.17;;;19.80;99.90;;;;;;6215067;23;20016;-86
2022/06/09 12:39:24;;;;;;;5.57;1.40;;;19.90;99.90;;;;;;6215542;23;20051;-81
2022/06/09 12:41:59;;;;;;;6.68;1.40;;;19.90;99.90;;;;;;6215043;23;20012;-82
2022/06/09 12:44:29;;;;;;;6.57;1.40;;;19.80;99.90;;;;;;6165610;23;20090;-82
2022/06/09 12:46:57;;;;;;;7.78;1.40;;;20.10;99.90;;;;;;6217364;23;20423;-83
2022/06/09 12:49:32;;;;;;;4.00;1.30;;;19.90;99.90;;;;;;6216958;23;20009;-82
2022/06/09 12:51:57;;;;;;;;;;;20.10;99.90;;;;;;6164917;23;20419;-82
2022/06/09 12:54:34;;;;;;;6.65;1.80;;;19.90;99.90;;;;;;6216190;23;19942;-83
2022/06/09 12:57:30;;;;;;;6.70;1.77;;;19.70;99.90;;;;;;6216342;23;20043;-83
2022/06/09 13:00:08;;;;;;;;;;;19.80;99.90;;;;;;6214583;23;20084;-82
2022/06/09 13:02:37;;;;;;;7.63;1.85;;;19.60;99.90;;;;;;6189965;23;19955;-81
2022/06/09 13:05:18;;;;;;;7.35;1.60;;;19.70;99.90;;;;;;6216992;23;20032;-82
2022/06/09 13:07:56;;;;;;;9.52;1.88;;;19.80;99.90;;;;;;6215164;23;20016;-83
2022/06/09 13:10:33;;;;;;;8.23;1.85;;;20.10;99.90;;;;;;6189120;23;20020;-82
2022/06/09 13:13:16;;;;;;;7.95;1.83;;;20.20;99.90;;;;;;6215648;23;20095;-83
2022/06/09 13:15:47;;;;;;;6.75;1.60;;;19.80;99.90;;;;;;6214979;23;20020;-83
2022/06/09 13:18:17;;;;;;;9.57;1.67;;;19.70;99.90;;;;;;6214841;23;20024;-82
2022/06/09 13:21:06;;;;;;;8.20;1.92;;;20.10;99.90;;;;;;6192500;23;20021;-83
2022/06/09 13:23:33;;;;;;;5.85;1.42;;;20.10;99.90;;;;;;6215870;23;20016;-82
2022/06/09 13:25:59;;;;;;;8.63;1.92;;;20.10;99.90;;;;;;6217196;23;20013;-84
2022/06/09 13:28:44;;;;;;;7.20;1.70;;;20.20;99.90;;;;;;6218121;23;20024;-83
2022/06/09 13:31:36;;;;;;;5.18;1.70;;;20.10;99.90;;;;;;6225200;23;20023;-81
2022/06/09 13:34:16;;;;;;;9.98;1.80;;;20.00;99.90;;;;;;6233281;23;20008;-78
2022/06/09 13:36:53;;;;;;;9.95;1.73;;;19.80;99.90;;;;;;6178160;23;20017;-80
2022/06/09 13:39:27;;;;;;;6.95;1.30;;;19.90;99.90;;;;;;6222227;23;20013;-82
2022/06/09 13:42:20;;;;;;;8.75;1.73;;;20.00;99.90;;;;;;6216991;23;20013;-81
2022/06/09 13:44:54;;;;;;;8.05;1.40;;;20.20;99.90;;;;;;6216436;23;20451;-81
2022/06/09 13:47:23;;;;;;;9.73;1.83;;;20.30;99.90;;;;;;6166145;23;20107;-82
2022/06/09 13:50:03;;;;;;;11.85;1.90;;;20.20;99.90;;;;;;6215757;23;20016;-81
2022/06/09 13:52:39;;;;;;;8.07;1.63;;;19.80;99.90;;;;;;6215345;23;20023;-82
2022/06/09 13:55:16;;;;;;;9.13;1.50;;;20.00;99.90;;;;;;6217641;23;20019;-83
2022/06/09 13:57:45;;;;;;;9.88;1.80;;;19.90;99.90;;;;;;6217397;23;20005;-82
2022/06/09 14:00:25;;;;;;;9.30;1.90;;;20.10;99.90;;;;;;6189963;23;20043;-82
2022/06/09 14:03:01;;;;;;;10.45;1.73;;;20.10;99.90;;;;;;6214837;23;20082;-81
2022/06/09 14:05:28;;;;;;;8.43;1.40;;;20.00;99.90;;;;;;6214768;23;20433;-83
2022/06/09 14:07:54;;;;;;;11.32;2.00;;;20.10;99.90;;;;;;6217041;23;20012;-85
2022/06/09 14:10:26;;;;;;;9.30;1.67;;;20.20;99.90;;;;;;6215063;23;20013;-82
2022/06/09 14:12:52;;;;;;;10.10;2.20;;;19.90;99.90;;;;;;6245285;23;20101;-84
2022/06/09 14:15:19;;;;;;;8.35;1.42;;;20.00;99.90;;;;;;6194822;23;20019;-81
2022/06/09 14:17:49;;;;;;;8.43;1.40;;;20.00;99.90;;;;;;6219629;23;20012;-83
2022/06/09 14:20:27;;;;;;;10.43;2.63;;;19.90;99.90;;;;;;6247067;23;20008;-83
2022/06/09 14:22:54;;;;;;;6.60;1.50;;;19.80;99.90;;;;;;6246030;23;20016;-82
2022/06/09 14:25:21;;;;;;;8.02;1.55;;;19.90;99.90;;;;;;6249139;23;20454;-83
2022/06/09 14:27:47;;;;;;;10.95;1.92;;;19.90;99.90;;;;;;6196942;23;20039;-83
2022/06/09 14:30:15;;;;;;;9.25;1.33;;;19.90;99.90;;;;;;6247239;23;20435;-82
2022/06/09 14:32:42;;;;;;;5.85;1.42;;;19.80;99.90;;;;;;6246977;23;20516;-82
2022/06/09 14:35:08;;;;;;;8.93;1.90;;;20.00;99.90;;;;;;6247350;23;20016;-83
2022/06/09 14:37:34;;;;;;;11.10;1.95;;;20.30;99.90;;;;;;6248967;23;20091;-82
2022/06/09 14:40:01;;;;;;;12.68;1.75;;;20.60;99.90;;;;;;6248432;23;20065;-81
2022/06/09 14:42:26;;;;;;;8.65;1.58;;;20.30;99.90;;;;;;6246433;23;20031;-81
2022/06/09 14:44:52;;;;;;;10.60;1.73;;;20.20;99.90;;;;;;6247388;23;20022;-84
2022/06/09 14:47:23;;;;;;;6.40;1.30;;;19.80;99.90;;;;;;6248376;23;20008;-82
2022/06/09 14:49:49;;;;;;;5.93;1.33;;;19.80;99.90;;;;;;6248671;23;20047;-84
2022/06/09 14:52:17;;;;;;;13.25;1.58;;;20.00;99.90;;;;;;6221509;23;20019;-82
2022/06/09 14:54:44;;;;;;;6.78;1.40;;;20.10;99.90;;;;;;6246680;23;20020;-82
2022/06/09 14:57:12;;;;;;;5.72;1.20;;;20.10;99.90;;;;;;6247111;23;20043;-80
2022/06/09 14:59:38;;;;;;;10.90;1.77;;;20.40;99.90;;;;;;6246687;23;20011;-83
2022/06/09 15:02:04;;;;;;;9.75;1.70;;;20.30;99.90;;;;;;6246647;23;20004;-84
2022/06/09 15:04:30;;;;;;;7.68;1.50;;;20.30;99.90;;;;;;6221269;23;20024;-83
2022/06/09 15:06:55;;;;;;;8.63;1.60;;;20.30;99.90;;;;;;6246559;23;20008;-81
2022/06/09 15:09:24;;;;;;;8.85;1.83;;;20.40;99.90;;;;;;6248702;23;20012;-82
2022/06/09 15:11:51;;;;;;;11.85;2.00;;;20.40;99.90;;;;;;6195844;23;20016;-83
2022/06/09 15:14:17;;;;;;;5.50;1.38;;;20.40;99.90;;;;;;6246525;23;20022;-82
2022/06/09 15:16:43;;;;;;;6.35;1.33;;;20.50;99.90;;;;;;6247302;23;20105;-81
2022/06/09 15:19:08;;;;;;;9.65;1.60;;;20.20;99.90;;;;;;6246818;23;20019;-81
2022/06/09 15:21:35;;;;;;;5.68;1.77;;;20.00;99.90;;;;;;6248716;23;20044;-83
2022/06/09 15:24:02;;;;;;;9.77;1.83;;;20.10;99.90;;;;;;6246637;23;20008;-85
2022/06/09 15:26:27;;;;;;;8.02;1.90;;;20.00;99.90;;;;;;6221208;23;20024;-85
2022/06/09 15:28:55;;;;;;;8.43;1.90;;;20.10;99.90;;;;;;6248537;23;20122;-84
2022/06/09 15:31:21;;;;;;;5.38;1.75;;;19.90;99.90;;;;;;6246677;23;20079;-81
2022/06/09 15:33:47;;;;;;;11.10;1.52;;;20.00;99.90;;;;;;6246323;23;20020;-84
2022/06/09 15:36:25;;;;;;;6.93;1.52;;;20.30;99.90;;;;;;6245965;23;20020;-83
2022/06/09 15:38:54;;;;;;;10.55;2.17;;;20.30;99.90;;;;;;6248106;23;20004;-81
2022/06/09 15:41:21;;;;;;;11.80;1.67;;;20.10;99.90;;;;;;6195636;23;20012;-84
2022/06/09 15:43:47;;;;;;;7.90;2.03;;;19.80;99.90;;;;;;6218864;23;20013;-82
2022/06/09 15:46:13;;;;;;;6.65;2.00;;;19.70;99.90;;;;;;6194361;23;20354;-81
2022/06/09 15:48:39;;;;;;;9.00;2.22;;;20.00;99.90;;;;;;6220693;23;20071;-81
2022/06/09 15:51:04;;;;;;;6.45;1.75;;;20.10;99.90;;;;;;6246476;23;20016;-82
2022/06/09 15:53:30;;;;;;;8.70;1.50;;;20.20;99.90;;;;;;6246198;23;20107;-82
2022/06/09 15:55:56;;;;;;;10.18;2.05;;;20.10;99.90;;;;;;6246347;23;20016;-83
2022/06/09 15:58:22;;;;;;;8.35;1.80;;;20.30;99.90;;;;;;6245748;23;20012;-84
2022/06/09 16:00:49;;;;;;;9.98;1.83;;;20.10;99.90;;;;;;6246575;23;20016;-82
2022/06/09 16:03:16;;;;;;;8.30;1.88;;;20.00;99.90;;;;;;6221027;23;20047;-84
2022/06/09 16:05:44;;;;;;;12.70;2.10;;;19.90;99.90;;;;;;6246530;23;20023;-85
2022/06/09 16:08:10;;;;;;;9.57;1.70;;;19.90;99.90;;;;;;6245931;23;20094;-83
2022/06/09 16:10:40;;;;;;;8.95;2.03;;;19.90;99.90;;;;;;6246773;23;20503;-83
2022/06/09 16:13:06;;;;;;;5.95;1.30;;;19.70;99.90;;;;;;6246914;23;20023;-83
2022/06/09 16:15:33;;;;;;;8.95;1.77;;;19.90;99.90;;;;;;6221012;23;20012;-83
2022/06/09 16:18:00;;;;;;;6.80;1.52;;;19.90;99.90;;;;;;6246011;23;20046;-83
2022/06/09 16:20:31;;;;;;;8.52;1.73;;;19.90;99.90;;;;;;6245814;23;20008;-81
2022/06/09 16:22:57;;;;;;;11.20;1.75;;;20.00;99.90;;;;;;6221607;23;20060;-81
2022/06/09 16:25:23;;;;;;;9.57;1.92;;;19.80;99.90;;;;;;6245784;23;20070;-82
2022/06/09 16:27:50;;;;;;;6.35;1.50;;;19.80;99.90;;;;;;6196117;23;20442;-83
2022/06/09 16:30:17;;;;;;;6.95;1.63;;;19.90;99.90;;;;;;6220637;23;20012;-84
2022/06/09 16:32:43;;;;;;;7.22;1.30;;;19.80;99.90;;;;;;6246052;23;20070;-83
2022/06/09 16:35:09;;;;;;;6.88;1.52;;;19.70;99.90;;;;;;6245901;23;20020;-82
2022/06/09 16:37:35;;;;;;;5.60;1.60;;;19.90;99.90;;;;;;6245336;23;20343;-84
2022/06/09 16:40:01;;;;;;;8.38;1.30;;;19.90;99.90;;;;;;6245984;23;20012;-83
2022/06/09 16:42:26;;;;;;;7.68;1.25;;;19.80;99.90;;;;;;6247735;23;20115;-83
2022/06/09 16:44:52;;;;;;;6.05;1.25;;;19.90;99.90;;;;;;6246006;23;20018;-84
2022/06/09 16:47:18;;;;;;;7.93;1.42;;;19.60;99.90;;;;;;6246138;23;20342;-81
2022/06/09 16:49:44;;;;;;;8.40;1.70;;;19.50;99.90;;;;;;6247432;23;20342;-82
2022/06/09 16:52:11;;;;;;;7.13;1.38;;;19.40;99.90;;;;;;6246826;23;20008;-81
2022/06/09 16:54:37;;;;;;;9.13;1.73;;;19.30;99.90;;;;;;6246393;23;20008;-84
2022/06/09 16:57:03;;;;;;;6.90;1.40;;;19.30;99.90;;;;;;6195731;23;20317;-80
2022/06/09 16:59:29;;;;;;;7.55;1.75;;;19.30;99.90;;;;;;6245850;23;20016;-82
2022/06/09 17:01:56;;;;;;;13.07;2.03;;;19.30;99.90;;;;;;6246285;23;20058;-81
2022/06/09 17:04:22;;;;;;;9.63;1.67;;;19.10;99.90;;;;;;6220129;23;20016;-84
2022/06/09 17:06:49;;;;;;;7.95;1.40;;;19.10;99.90;;;;;;6246792;23;20065;-82
2022/06/09 17:09:16;;;;;;;6.65;1.20;;;19.20;99.90;;;;;;6245842;23;20032;-82
2022/06/09 17:11:41;;;;;;;10.73;2.10;;;19.40;99.90;;;;;;6247007;23;20020;-83
2022/06/09 17:14:09;;;;;;;7.07;1.60;;;19.50;99.90;;;;;;6247206;23;20008;-81
2022/06/09 17:16:35;;;;;;;5.32;1.30;;;19.30;99.90;;;;;;6244828;23;20048;-83
2022/06/09 17:19:05;;;;;;;6.72;1.35;;;19.50;99.90;;;;;;6246027;23;20039;-81
2022/06/09 17:21:31;;;;;;;6.78;1.25;;;19.40;99.90;;;;;;6245325;23;20004;-82
2022/06/09 17:23:57;;;;;;;8.75;1.20;;;19.40;99.90;;;;;;6247608;23;20012;-81
2022/06/09 17:26:23;;;;;;;8.63;1.70;;;19.60;99.90;;;;;;6247288;23;20087;-83
2022/06/09 17:28:51;;;;;;;9.50;1.48;;;19.50;99.90;;;;;;6245453;23;20012;-81
2022/06/09 17:31:17;;;;;;;10.55;2.20;;;19.50;99.90;;;;;;6195110;23;20090;-82
2022/06/09 17:33:43;;;;;;;5.43;1.25;;;19.40;99.90;;;;;;6195046;23;20043;-83
2022/06/09 17:36:08;;;;;;;11.85;3.13;;;19.50;99.90;;;;;;6245262;23;20020;-83
2022/06/09 17:38:34;;;;;;;5.40;1.40;;;19.40;99.90;;;;;;6245886;23;20442;-82
2022/06/09 17:41:00;;;;;;;15.43;1.70;;;19.20;99.90;;;;;;6245410;23;20421;-82
2022/06/09 17:43:25;;;;;;;7.88;1.20;;;19.00;99.90;;;;;;6246266;23;20504;-84
2022/06/09 17:45:51;;;;;;;7.90;1.70;;;19.00;99.90;;;;;;6221111;23;20043;-82
2022/06/09 17:48:17;;;;;;;7.00;1.08;;;18.90;99.90;;;;;;6247104;23;20070;-81
2022/06/09 17:50:46;;;;;;;6.53;1.30;;;19.10;99.90;;;;;;6246994;23;20062;-82
2022/06/09 17:53:11;;;;;;;9.10;1.58;;;19.00;99.90;;;;;;6244983;23;20347;-81
2022/06/09 17:55:38;;;;;;;4.80;0.95;;;19.00;99.90;;;;;;6247441;23;20012;-82
2022/06/09 17:58:06;;;;;;;10.27;1.33;;;19.00;99.90;;;;;;6248320;23;20012;-82
2022/06/09 18:00:36;;;;;;;7.38;1.67;;;18.90;99.90;;;;;;6222364;23;20012;-80
2022/06/09 18:03:03;;;;;;;5.63;1.00;;;19.00;99.90;;;;;;6223162;23;20070;-80
2022/06/09 18:05:29;;;;;;;7.60;1.25;;;18.90;99.90;;;;;;6221317;23;20099;-82